createdAt,value
2022-10-10T00:02:11.771Z,7.81
2022-10-10T00:04:33.237Z,7.72
2022-10-10T00:06:54.723Z,7.70
2022-10-10T00:09:16.192Z,7.76
2022-10-10T00:11:37.680Z,7.68
2022-10-10T00:13:59.330Z,7.75
2022-10-10T00:16:21.177Z,7.81
2022-10-10T00:18:43.188Z,7.79
2022-10-10T00:21:05.015Z,7.82
2022-10-10T00:23:26.609Z,7.83
2022-10-10T00:25:49.617Z,7.68
2022-10-10T00:28:12.454Z,7.65
2022-10-10T00:30:34.010Z,7.73
2022-10-10T00:32:55.501Z,7.58
2022-10-10T00:35:17.183Z,7.65
2022-10-10T00:37:38.780Z,7.62
2022-10-10T00:40:00.276Z,7.64
2022-10-10T00:42:21.761Z,7.80
2022-10-10T00:44:45.587Z,7.62
2022-10-10T00:47:07.481Z,7.77
2022-10-10T00:49:29.949Z,7.67
2022-10-10T00:51:54.712Z,7.87
2022-10-10T00:54:19.785Z,7.61
2022-10-10T00:56:55.524Z,7.85
2022-10-10T00:59:18.730Z,7.83
2022-10-10T01:01:41.541Z,7.91
2022-10-10T01:04:03.906Z,8.03
2022-10-10T01:06:25.495Z,8.06
2022-10-10T01:08:47.059Z,8.15
2022-10-10T01:11:38.098Z,8.24
2022-10-10T01:14:02.587Z,8.27
2022-10-10T01:16:42.322Z,8.33
2022-10-10T01:19:19.110Z,8.27
2022-10-10T01:22:01.509Z,8.39
2022-10-10T01:24:44.265Z,8.37
2022-10-10T01:27:05.722Z,8.47
2022-10-10T01:29:33.101Z,8.50
2022-10-10T01:31:56.737Z,8.58
2022-10-10T01:34:27.277Z,8.44
2022-10-10T01:37:10.391Z,8.49
2022-10-10T01:39:38.163Z,8.69
2022-10-10T01:42:10.343Z,8.75
2022-10-10T01:44:31.880Z,8.77
2022-10-10T01:46:53.338Z,8.71
2022-10-10T01:49:15.008Z,8.80
2022-10-10T01:51:54.031Z,8.85
2022-10-10T01:54:36.278Z,8.93
2022-10-10T01:57:38.855Z,8.91
2022-10-10T02:00:07.543Z,8.98
2022-10-10T02:02:50.638Z,9.01
2022-10-10T02:05:24.174Z,9.10
2022-10-10T02:08:06.448Z,8.96
2022-10-10T02:10:32.067Z,8.96
2022-10-10T02:12:55.817Z,9.06
2022-10-10T02:15:21.525Z,9.12
2022-10-10T02:17:46.631Z,8.96
2022-10-10T02:20:10.373Z,9.02
2022-10-10T02:22:32.848Z,9.15
2022-10-10T02:24:55.186Z,9.24
2022-10-10T02:27:25.845Z,9.29
2022-10-10T02:29:49.636Z,9.36
2022-10-10T02:32:32.630Z,9.33
2022-10-10T02:34:57.680Z,9.33
2022-10-10T02:37:19.727Z,9.42
2022-10-10T02:39:44.919Z,9.47
2022-10-10T02:42:08.260Z,9.54
2022-10-10T02:44:31.045Z,9.58
2022-10-10T02:46:52.910Z,9.57
2022-10-10T02:49:14.470Z,9.63
2022-10-10T02:51:36.046Z,9.65
2022-10-10T02:53:57.647Z,9.63
2022-10-10T02:56:19.103Z,9.63
2022-10-10T02:58:40.560Z,9.66
2022-10-10T03:01:02.088Z,9.70
2022-10-10T03:03:23.676Z,9.73
2022-10-10T03:05:46.950Z,9.77
2022-10-10T03:08:11.572Z,9.73
2022-10-10T03:10:33.707Z,9.78
2022-10-10T03:12:55.178Z,9.77
2022-10-10T03:15:16.794Z,9.89
2022-10-10T03:17:38.350Z,9.62
2022-10-10T03:19:59.890Z,9.68
2022-10-10T03:22:21.489Z,9.69
2022-10-10T03:24:43.022Z,9.71
2022-10-10T03:27:04.489Z,9.71
2022-10-10T03:29:26.088Z,9.72
2022-10-10T03:31:47.592Z,9.72
2022-10-10T03:34:09.898Z,9.82
2022-10-10T03:36:31.400Z,9.76
2022-10-10T03:38:53.037Z,9.59
2022-10-10T03:41:14.742Z,9.59
2022-10-10T03:43:36.241Z,9.58
2022-10-10T03:45:57.717Z,9.67
2022-10-10T03:48:19.234Z,9.73
2022-10-10T03:50:40.698Z,9.87
2022-10-10T03:53:02.272Z,9.84
2022-10-10T03:55:23.840Z,9.77
2022-10-10T03:57:45.354Z,9.83
2022-10-10T04:00:07.436Z,9.64
2022-10-10T04:02:28.872Z,9.36
2022-10-10T04:04:50.448Z,9.42
2022-10-10T04:07:11.904Z,9.53
2022-10-10T04:09:33.392Z,9.51
2022-10-10T04:11:54.849Z,9.62
2022-10-10T04:14:16.334Z,9.58
2022-10-10T04:16:37.786Z,9.55
2022-10-10T04:18:59.269Z,9.61
2022-10-10T04:21:20.757Z,9.69
2022-10-10T04:23:42.294Z,9.69
2022-10-10T04:26:03.804Z,9.52
2022-10-10T04:28:25.414Z,9.42
2022-10-10T04:30:47.038Z,9.49
2022-10-10T04:33:09.007Z,9.53
2022-10-10T04:35:30.475Z,9.47
2022-10-10T04:37:52.418Z,9.63
2022-10-10T04:40:13.933Z,9.60
2022-10-10T04:42:35.395Z,9.49
2022-10-10T04:44:56.920Z,9.34
2022-10-10T04:47:18.383Z,9.40
2022-10-10T04:49:42.005Z,9.47
2022-10-10T04:52:03.504Z,9.37
2022-10-10T04:54:24.981Z,9.47
2022-10-10T04:56:46.501Z,9.50
2022-10-10T04:59:09.371Z,9.55
2022-10-10T05:01:31.014Z,9.55
2022-10-10T05:03:53.882Z,9.22
2022-10-10T05:06:15.337Z,9.29
2022-10-10T05:08:36.855Z,9.33
2022-10-10T05:10:58.332Z,9.49
2022-10-10T05:13:19.941Z,9.54
2022-10-10T05:15:41.701Z,9.46
2022-10-10T05:18:04.467Z,9.38
2022-10-10T05:20:25.950Z,9.48
2022-10-10T05:22:47.511Z,9.55
2022-10-10T05:25:09.152Z,9.63
2022-10-10T05:27:30.638Z,9.69
2022-10-10T05:29:52.718Z,9.67
2022-10-10T05:32:14.150Z,9.63
2022-10-10T05:34:35.696Z,9.74
2022-10-10T05:36:58.035Z,9.67
2022-10-10T05:39:19.504Z,9.61
2022-10-10T05:41:41.360Z,9.63
2022-10-10T05:44:02.827Z,9.64
2022-10-10T05:46:26.730Z,9.73
2022-10-10T05:48:48.211Z,9.49
2022-10-10T05:51:09.950Z,9.50
2022-10-10T05:53:31.481Z,9.50
2022-10-10T05:55:53.692Z,9.48
2022-10-10T05:58:15.387Z,9.58
2022-10-10T06:00:36.860Z,9.73
2022-10-10T06:02:58.482Z,9.68
2022-10-10T06:05:20.218Z,9.90
2022-10-10T06:08:03.514Z,9.85
2022-10-10T06:10:23.200Z,9.84
2022-10-10T06:12:44.726Z,9.77
2022-10-10T06:15:07.052Z,9.84
2022-10-10T06:17:28.496Z,9.77
2022-10-10T06:19:49.973Z,9.80
2022-10-10T06:22:11.425Z,9.87
2022-10-10T06:24:32.900Z,9.88
2022-10-10T06:26:54.375Z,9.84
2022-10-10T06:29:15.882Z,9.87
2022-10-10T06:31:39.599Z,9.95
2022-10-10T06:34:01.132Z,9.90
2022-10-10T06:36:22.592Z,9.96
2022-10-10T06:38:46.077Z,10.00
2022-10-10T06:41:08.216Z,9.81
2022-10-10T06:43:29.739Z,9.87
2022-10-10T06:45:51.573Z,10.00
2022-10-10T06:48:14.497Z,10.26
2022-10-10T06:50:36.660Z,10.38
2022-10-10T06:52:58.115Z,10.46
2022-10-10T06:55:19.617Z,10.48
2022-10-10T06:57:41.079Z,10.59
2022-10-10T07:00:04.046Z,10.69
2022-10-10T07:02:25.572Z,10.80
2022-10-10T07:04:47.055Z,10.78
2022-10-10T07:07:08.584Z,10.80
2022-10-10T07:09:30.075Z,10.82
2022-10-10T07:11:51.574Z,10.93
2022-10-10T07:14:14.146Z,11.00
2022-10-10T07:16:35.598Z,11.13
2022-10-10T07:18:57.079Z,11.24
2022-10-10T07:21:18.582Z,11.22
2022-10-10T07:23:40.188Z,11.33
2022-10-10T07:26:06.830Z,11.41
2022-10-10T07:28:29.125Z,11.36
2022-10-10T07:30:50.580Z,11.45
2022-10-10T07:33:13.307Z,11.51
2022-10-10T07:35:34.835Z,11.48
2022-10-10T07:37:56.455Z,11.64
2022-10-10T07:40:17.931Z,11.64
2022-10-10T07:42:39.438Z,11.64
2022-10-10T07:45:00.978Z,11.63
2022-10-10T07:47:22.513Z,11.70
2022-10-10T07:49:43.960Z,11.84
2022-10-10T07:52:05.769Z,11.87
2022-10-10T07:54:27.398Z,11.89
2022-10-10T07:56:48.884Z,11.73
2022-10-10T07:59:10.419Z,11.76
2022-10-10T08:01:31.925Z,11.89
2022-10-10T08:03:55.998Z,11.94
2022-10-10T08:06:18.163Z,11.90
2022-10-10T08:08:49.973Z,11.90
2022-10-10T08:11:12.556Z,12.12
2022-10-10T08:13:35.512Z,12.21
2022-10-10T08:15:57.007Z,12.45
2022-10-10T08:18:18.699Z,12.59
2022-10-10T08:20:40.154Z,12.62
2022-10-10T08:23:01.637Z,12.41
2022-10-10T08:25:23.329Z,12.59
2022-10-10T08:27:45.323Z,12.83
2022-10-10T08:30:07.100Z,12.87
2022-10-10T08:32:28.568Z,12.89
2022-10-10T08:34:50.621Z,13.08
2022-10-10T08:37:12.107Z,13.32
2022-10-10T08:39:33.634Z,13.62
2022-10-10T08:41:56.668Z,13.66
2022-10-10T08:44:42.679Z,13.68
2022-10-10T08:47:09.995Z,13.83
2022-10-10T08:49:36.503Z,13.78
2022-10-10T08:52:25.558Z,13.99
2022-10-10T08:54:48.417Z,14.10
2022-10-10T08:57:33.440Z,14.07
2022-10-10T08:59:59.758Z,14.11
2022-10-10T09:02:50.157Z,14.27
2022-10-10T09:05:17.751Z,14.47
2022-10-10T09:07:54.501Z,14.66
2022-10-10T09:10:32.309Z,14.89
2022-10-10T09:13:08.502Z,14.72
2022-10-10T09:15:43.229Z,14.69
2022-10-10T09:18:19.119Z,14.70
2022-10-10T09:20:52.515Z,14.84
2022-10-10T09:23:26.499Z,15.14
2022-10-10T09:26:10.835Z,15.19
2022-10-10T09:28:44.516Z,15.44
2022-10-10T09:31:15.111Z,15.53
2022-10-10T09:33:45.208Z,15.57
2022-10-10T09:36:13.894Z,15.81
2022-10-10T09:38:50.005Z,15.71
2022-10-10T09:41:23.242Z,15.75
2022-10-10T09:43:44.713Z,15.75
2022-10-10T09:46:06.600Z,15.94
2022-10-10T09:48:33.501Z,15.89
2022-10-10T09:50:55.164Z,15.90
2022-10-10T09:53:17.166Z,16.21
2022-10-10T09:55:39.433Z,16.31
2022-10-10T09:58:24.569Z,16.25
2022-10-10T10:00:46.188Z,16.32
2022-10-10T10:03:13.045Z,16.39
2022-10-10T10:05:35.284Z,16.42
2022-10-10T10:07:58.343Z,16.35
2022-10-10T10:10:26.631Z,16.51
2022-10-10T10:12:48.401Z,16.51
2022-10-10T10:15:21.844Z,16.65
2022-10-10T10:17:43.473Z,16.89
2022-10-10T10:20:31.536Z,16.79
2022-10-10T10:25:37.571Z,16.94
2022-10-10T10:28:25.529Z,17.02
2022-10-10T10:30:48.611Z,16.95
2022-10-10T10:33:27.817Z,17.20
2022-10-10T10:36:07.534Z,17.32
2022-10-10T10:39:06.729Z,17.48
2022-10-10T10:41:48.100Z,17.56
2022-10-10T10:44:21.707Z,17.79
2022-10-10T10:46:58.074Z,18.01
2022-10-10T10:49:30.119Z,17.75
2022-10-10T10:52:06.558Z,17.70
2022-10-10T10:54:55.361Z,17.86
2022-10-10T10:58:04.583Z,17.99
2022-10-10T11:01:20.889Z,18.02
2022-10-10T11:05:17.912Z,18.12
2022-10-10T11:06:39.582Z,18.26
2022-10-10T11:09:49.232Z,17.73
2022-10-10T11:12:22.627Z,18.00
2022-10-10T11:14:54.034Z,18.32
2022-10-10T11:17:24.411Z,18.68
2022-10-10T11:20:23.268Z,18.74
2022-10-10T11:23:12.616Z,18.86
2022-10-10T11:25:43.073Z,18.91
2022-10-10T11:28:11.065Z,18.74
2022-10-10T11:30:39.279Z,19.02
2022-10-10T11:33:11.027Z,19.33
2022-10-10T11:35:55.588Z,19.34
2022-10-10T11:38:27.464Z,19.51
2022-10-10T11:41:13.977Z,19.40
2022-10-10T11:44:00.964Z,19.35
2022-10-10T11:46:46.877Z,19.36
2022-10-10T11:49:17.556Z,19.37
2022-10-10T11:52:14.960Z,19.46
2022-10-10T11:54:54.199Z,19.54
2022-10-10T11:57:27.521Z,19.68
2022-10-10T11:59:53.416Z,19.48
2022-10-10T12:02:23.268Z,19.44
2022-10-10T12:04:47.669Z,19.48
2022-10-10T12:07:17.902Z,19.62
2022-10-10T12:09:45.843Z,19.47
2022-10-10T12:12:34.163Z,19.57
2022-10-10T12:15:00.620Z,19.57
2022-10-10T12:17:32.439Z,19.65
2022-10-10T12:19:54.280Z,19.64
2022-10-10T12:22:33.703Z,19.84
2022-10-10T12:25:22.756Z,19.86
2022-10-10T12:27:46.744Z,20.24
2022-10-10T12:30:08.191Z,20.45
2022-10-10T12:32:43.968Z,20.34
2022-10-10T12:35:35.486Z,20.45
2022-10-10T12:38:06.083Z,20.66
2022-10-10T12:40:27.698Z,20.73
2022-10-10T12:42:49.129Z,20.72
2022-10-10T12:45:28.939Z,20.65
2022-10-10T12:48:05.093Z,20.90
2022-10-10T12:50:29.084Z,20.83
2022-10-10T12:52:57.653Z,20.73
2022-10-10T12:55:32.334Z,20.44
2022-10-10T12:57:57.479Z,20.36
2022-10-10T13:00:27.962Z,20.47
2022-10-10T13:02:56.280Z,20.50
2022-10-10T13:05:35.074Z,20.69
2022-10-10T13:08:00.576Z,20.55
2022-10-10T13:10:25.260Z,20.51
2022-10-10T13:12:59.258Z,20.38
2022-10-10T13:15:21.309Z,20.37
2022-10-10T13:17:42.804Z,20.28
2022-10-10T13:20:05.761Z,20.23
2022-10-10T13:22:30.144Z,20.17
2022-10-10T13:24:52.395Z,20.19
2022-10-10T13:27:35.284Z,20.25
2022-10-10T13:29:57.165Z,20.15
2022-10-10T13:32:23.021Z,20.35
2022-10-10T13:34:52.298Z,20.47
2022-10-10T13:37:16.316Z,20.50
2022-10-10T13:39:38.964Z,20.38
2022-10-10T13:42:01.062Z,20.42
2022-10-10T13:44:31.911Z,20.37
2022-10-10T13:46:53.488Z,20.22
2022-10-10T13:49:30.439Z,20.33
2022-10-10T13:52:02.737Z,20.35
2022-10-10T13:54:37.359Z,20.51
2022-10-10T13:57:02.530Z,20.45
2022-10-10T13:59:24.780Z,20.33
2022-10-10T14:01:48.949Z,20.29
2022-10-10T14:04:13.453Z,20.24
2022-10-10T14:06:35.347Z,20.19
2022-10-10T14:09:06.492Z,20.23
2022-10-10T14:11:30.320Z,20.39
2022-10-10T14:13:57.681Z,20.46
2022-10-10T14:16:19.102Z,20.38
2022-10-10T14:18:40.617Z,20.35
2022-10-10T14:21:02.248Z,20.28
2022-10-10T14:23:23.916Z,20.30
2022-10-10T14:25:48.064Z,20.17
2022-10-10T14:28:20.669Z,20.00
2022-10-10T14:30:42.237Z,19.97
2022-10-10T14:33:10.793Z,19.70
2022-10-10T14:35:32.495Z,19.56
2022-10-10T14:37:54.004Z,19.67
2022-10-10T14:40:21.929Z,19.59
2022-10-10T14:42:43.397Z,19.52
2022-10-10T14:45:05.189Z,19.59
2022-10-10T14:47:26.687Z,19.39
2022-10-10T14:49:48.509Z,19.41
2022-10-10T14:52:10.107Z,19.64
2022-10-10T14:54:31.570Z,19.53
2022-10-10T14:57:07.580Z,19.41
2022-10-10T14:59:48.041Z,19.59
2022-10-10T15:02:11.074Z,19.54
2022-10-10T15:04:32.530Z,19.65
2022-10-10T15:07:12.386Z,19.68
2022-10-10T15:09:42.910Z,19.75
2022-10-10T15:12:06.743Z,19.57
2022-10-10T15:14:28.171Z,19.41
2022-10-10T15:16:49.964Z,19.40
2022-10-10T15:19:11.443Z,19.39
2022-10-10T15:21:32.912Z,19.34
2022-10-10T15:23:55.239Z,19.35
2022-10-10T15:26:16.693Z,19.30
2022-10-10T15:28:38.168Z,19.46
2022-10-10T15:31:00.653Z,19.34
2022-10-10T15:33:22.389Z,19.19
2022-10-10T15:36:07.905Z,19.03
2022-10-10T15:38:25.719Z,18.87
2022-10-10T15:40:56.799Z,18.76
2022-10-10T15:43:18.247Z,18.56
2022-10-10T15:45:55.572Z,18.50
2022-10-10T15:48:17.213Z,18.47
2022-10-10T15:50:42.330Z,18.45
2022-10-10T15:53:03.775Z,18.37
2022-10-10T15:55:25.255Z,18.38
2022-10-10T15:57:46.751Z,18.52
2022-10-10T16:00:08.623Z,18.63
2022-10-10T16:02:30.110Z,18.70
2022-10-10T16:04:51.605Z,18.88
2022-10-10T16:07:28.310Z,18.87
2022-10-10T16:09:51.483Z,18.95
2022-10-10T16:12:12.939Z,19.02
2022-10-10T16:14:34.472Z,19.17
2022-10-10T16:16:59.392Z,18.94
2022-10-10T16:19:20.927Z,18.86
2022-10-10T16:21:42.585Z,18.84
2022-10-10T16:24:04.211Z,18.67
2022-10-10T16:26:29.301Z,18.71
2022-10-10T16:28:50.818Z,18.72
2022-10-10T16:31:14.896Z,18.66
2022-10-10T16:33:38.078Z,18.68
2022-10-10T16:36:00.433Z,18.55
2022-10-10T16:38:21.999Z,18.27
2022-10-10T16:40:43.528Z,18.12
2022-10-10T16:43:05.116Z,17.94
2022-10-10T16:45:26.592Z,17.97
2022-10-10T16:47:48.105Z,18.03
2022-10-10T16:50:09.891Z,17.95
2022-10-10T16:52:33.064Z,17.91
2022-10-10T16:54:54.556Z,17.90
2022-10-10T16:57:16.346Z,17.79
2022-10-10T16:59:37.873Z,17.70
2022-10-10T17:01:59.365Z,17.62
2022-10-10T17:04:21.539Z,17.61
2022-10-10T17:06:43.324Z,17.45
2022-10-10T17:09:07.348Z,17.40
2022-10-10T17:11:28.870Z,17.35
2022-10-10T17:13:51.241Z,17.29
2022-10-10T17:16:59.970Z,17.23
2022-10-10T17:19:04.361Z,17.15
2022-10-10T17:21:25.918Z,17.07
2022-10-10T17:23:48.335Z,17.00
2022-10-10T17:26:13.030Z,16.91
2022-10-10T17:28:35.132Z,16.90
2022-10-10T17:30:56.644Z,16.82
2022-10-10T17:33:19.418Z,16.70
2022-10-10T17:35:50.880Z,16.64
2022-10-10T17:38:34.932Z,16.40
2022-10-10T17:40:58.775Z,16.44
2022-10-10T17:43:20.309Z,16.35
2022-10-10T17:45:41.792Z,16.31
2022-10-10T17:48:09.133Z,16.34
2022-10-10T17:50:30.620Z,16.12
2022-10-10T17:52:53.371Z,16.14
2022-10-10T17:55:14.928Z,16.07
2022-10-10T17:57:36.562Z,15.91
2022-10-10T17:59:58.028Z,15.89
2022-10-10T18:02:19.711Z,15.88
2022-10-10T18:04:41.675Z,15.78
2022-10-10T18:07:03.326Z,15.74
2022-10-10T18:09:24.926Z,15.74
2022-10-10T18:11:46.506Z,15.68
2022-10-10T18:14:08.016Z,15.71
2022-10-10T18:16:34.065Z,15.72
2022-10-10T18:18:55.847Z,15.73
2022-10-10T18:21:17.959Z,15.74
2022-10-10T18:23:40.269Z,15.67
2022-10-10T18:26:03.577Z,15.60
2022-10-10T18:28:25.062Z,15.60
2022-10-10T18:30:46.596Z,15.33
2022-10-10T18:33:08.108Z,15.37
2022-10-10T18:35:29.619Z,15.28
2022-10-10T18:37:51.130Z,15.21
2022-10-10T18:40:13.430Z,15.14
2022-10-10T18:42:36.030Z,15.16
2022-10-10T18:44:57.525Z,15.15
2022-10-10T18:47:21.516Z,15.19
2022-10-10T18:49:43.087Z,15.22
2022-10-10T18:52:05.102Z,15.12
2022-10-10T18:54:27.974Z,15.10
2022-10-10T18:56:49.478Z,15.10
2022-10-10T18:59:16.883Z,15.01
2022-10-10T19:01:40.327Z,15.02
2022-10-10T19:04:04.132Z,15.07
2022-10-10T19:06:26.216Z,15.01
2022-10-10T19:08:48.068Z,15.03
2022-10-10T19:11:22.302Z,14.89
2022-10-10T19:13:43.815Z,15.01
2022-10-10T19:16:07.288Z,15.00
2022-10-10T19:18:28.780Z,14.91
2022-10-10T19:20:50.311Z,14.73
2022-10-10T19:23:14.955Z,14.67
2022-10-10T19:25:44.221Z,14.69
2022-10-10T19:28:07.015Z,14.75
2022-10-10T19:30:28.548Z,14.81
2022-10-10T19:32:50.111Z,14.81
2022-10-10T19:35:11.596Z,14.91
2022-10-10T19:37:33.067Z,14.86
2022-10-10T19:39:54.707Z,14.90
2022-10-10T19:42:16.162Z,14.98
2022-10-10T19:44:37.703Z,15.03
2022-10-10T19:47:00.480Z,15.07
2022-10-10T19:49:23.160Z,15.03
2022-10-10T19:51:44.667Z,15.04
2022-10-10T19:54:06.184Z,14.91
2022-10-10T19:56:27.881Z,14.98
2022-10-10T19:58:49.417Z,14.97
2022-10-10T20:01:13.669Z,15.15
2022-10-10T20:03:35.282Z,15.19
2022-10-10T20:06:00.651Z,15.11
2022-10-10T20:08:22.316Z,15.18
2022-10-10T20:10:44.396Z,15.25
2022-10-10T20:13:06.006Z,15.21
2022-10-10T20:15:27.472Z,15.16
2022-10-10T20:17:49.015Z,15.06
2022-10-10T20:20:10.915Z,15.26
2022-10-10T20:22:33.379Z,15.16
2022-10-10T20:24:54.865Z,15.19
2022-10-10T20:27:16.401Z,15.25
2022-10-10T20:29:37.926Z,15.13
2022-10-10T20:31:59.361Z,15.10
2022-10-10T20:34:20.832Z,15.13
2022-10-10T20:36:42.400Z,15.26
2022-10-10T20:39:07.954Z,15.22
2022-10-10T20:41:32.393Z,15.37
2022-10-10T20:43:58.485Z,15.16
2022-10-10T20:46:19.935Z,15.22
2022-10-10T20:48:41.662Z,15.15
2022-10-10T20:51:14.018Z,15.15
2022-10-10T20:53:36.527Z,15.18
2022-10-10T20:55:57.978Z,15.06
2022-10-10T20:58:19.495Z,15.08
2022-10-10T21:00:44.683Z,15.01
2022-10-10T21:03:06.232Z,15.03
2022-10-10T21:05:27.689Z,15.07
2022-10-10T21:07:49.323Z,15.16
2022-10-10T21:10:10.768Z,15.26
2022-10-10T21:12:32.267Z,15.09
2022-10-10T21:14:53.816Z,15.11
2022-10-10T21:17:15.277Z,15.15
2022-10-10T21:19:36.729Z,15.18
2022-10-10T21:21:58.255Z,15.16
2022-10-10T21:24:19.701Z,15.16
2022-10-10T21:26:42.116Z,15.09
2022-10-10T21:29:04.314Z,15.23
2022-10-10T21:31:32.349Z,15.22
2022-10-10T21:33:54.602Z,15.26
2022-10-10T21:36:18.170Z,15.26
2022-10-10T21:38:39.721Z,15.21
2022-10-10T21:41:09.556Z,15.17
2022-10-10T21:43:31.011Z,15.14
2022-10-10T21:45:52.464Z,15.21
2022-10-10T21:48:14.030Z,15.20
2022-10-10T21:50:36.081Z,15.29
2022-10-10T21:52:57.737Z,15.34
2022-10-10T21:55:19.376Z,15.35
2022-10-10T21:57:40.854Z,15.38
2022-10-10T22:00:02.424Z,15.38
2022-10-10T22:02:23.962Z,15.41
2022-10-10T22:04:50.405Z,15.42
2022-10-10T22:07:11.944Z,15.39
2022-10-10T22:09:33.391Z,15.41
2022-10-10T22:11:55.143Z,15.41
2022-10-10T22:14:16.699Z,15.42
2022-10-10T22:16:38.212Z,15.42
2022-10-10T22:19:00.015Z,15.42
2022-10-10T22:21:21.759Z,15.42
2022-10-10T22:23:44.615Z,15.40
2022-10-10T22:26:12.566Z,15.39
2022-10-10T22:28:34.080Z,15.45
2022-10-10T22:30:55.581Z,15.32
2022-10-10T22:33:17.092Z,15.27
2022-10-10T22:35:38.611Z,15.22
2022-10-10T22:38:01.077Z,15.22
2022-10-10T22:40:23.378Z,15.13
2022-10-10T22:42:44.824Z,15.07
2022-10-10T22:45:06.757Z,15.03
2022-10-10T22:47:29.197Z,15.03
2022-10-10T22:49:50.654Z,15.00
2022-10-10T22:52:12.148Z,14.88
2022-10-10T22:54:33.857Z,14.96
2022-10-10T22:56:55.411Z,14.93
2022-10-10T22:59:16.888Z,14.88
2022-10-10T23:01:38.366Z,14.84
2022-10-10T23:04:03.353Z,14.87
2022-10-10T23:06:25.033Z,14.88
2022-10-10T23:08:46.514Z,14.86
2022-10-10T23:11:08.006Z,14.82
2022-10-10T23:13:30.359Z,14.65
2022-10-10T23:15:51.904Z,14.71
2022-10-10T23:18:13.392Z,14.69
2022-10-10T23:20:35.416Z,14.49
2022-10-10T23:22:56.958Z,14.54
2022-10-10T23:25:18.450Z,14.54
2022-10-10T23:27:39.892Z,14.50
2022-10-10T23:30:01.402Z,14.45
2022-10-10T23:32:25.071Z,14.43
2022-10-10T23:34:46.587Z,14.43
2022-10-10T23:37:08.305Z,14.40
2022-10-10T23:39:29.754Z,14.34
2022-10-10T23:41:51.269Z,14.32
2022-10-10T23:44:12.773Z,14.23
2022-10-10T23:46:34.306Z,14.28
2022-10-10T23:48:55.758Z,14.34
2022-10-10T23:51:17.517Z,14.31
2022-10-10T23:53:39.044Z,14.33
2022-10-10T23:56:00.582Z,14.32
2022-10-10T23:58:22.405Z,14.34
